Norris Rancho Marino Reserve, California Weather observations

Data are for 10 minute period ending at time listed.
 Day   Time   Solar   Ave.   Ave.  Ave.  Vector  Max.   Baro.   Total    
  of    of     Rad.   Air    Rel.  Wind   Wind   Wind  Press.  Precip.   
Year   Day            Temp.  Hum.  Speed  Dir.   Gust                    
2014   (PST)  Kw/m2    F      %     mph   deg.    mph    mb.     in.     
-------------------------------------------------------------------------
 355   13:30   0.40   63.2    85    1.9   209     3.5   1019.5    0.00 
 355   13:40   0.42   63.5    85    2.8   213     4.0   1019.5    0.00 
 355   13:50   0.39   63.3    85    2.8   250     4.0   1019.5    0.00 
 355   14:00   0.33   62.8    86    3.4   286     5.6   1019.4    0.00 
 355   14:10   0.34   62.7    87    4.4   288     6.3   1019.3    0.00 
 355   14:20   0.26   62.6    87    4.3   281     5.4   1019.2    0.00 
 355   14:30   0.20   62.4    88    3.8   291     5.7   1019.2    0.00 
 355   14:40   0.20   62.6    87    5.3   289     7.7   1019.3    0.00 
 355   14:50   0.22   62.6    87    4.4   292     6.0   1019.4    0.00 
 355   15:00   0.29   62.4    88    3.8   291     5.5   1019.4    0.00 
 355   15:10   0.23   62.7    88    3.2   293     4.7   1019.2    0.00 
 355   15:20   0.17   62.7    88    3.1   298     4.7   1019.1    0.00 
 355   15:30   0.17   62.9    87    3.0   307     4.7   1019.0    0.00 
 355   15:40   0.18   63.5    86    3.1   317     4.8   1018.9    0.00 
 355   15:50   0.19   63.6    86    6.3   271     9.5   1018.9    0.00 
 355   16:00   0.17   62.9    87    5.1   284     6.6   1018.9    0.00 
 355   16:10   0.13   62.7    88    6.0   287     7.8   1018.9    0.00 
 355   16:20   0.10   62.6    88    4.3   293     6.9   1019.0    0.00 
 355   16:30   0.08   62.7    88    2.6   295     3.9   1019.1    0.00 
 355   16:40   0.05   62.4    88    3.0   301     4.7   1019.1    0.00 
 355   16:50   0.03   62.2    88    0.5   346     1.7   1019.2    0.00 
 355   17:00   0.01   61.8    88    1.9   284     3.7   1019.3    0.00 
 355   17:10   0.01   61.2    89    1.3    60     2.9   1019.3    0.00 
 355   17:20   0.01   60.3    89    2.0    32     3.4   1019.4    0.00 
 355   17:30   0.00   59.7    90    2.1   350     3.7   1019.5    0.00 
 355   17:40   0.00   59.4    90    2.2    17     5.0   1019.5    0.00 
 355   17:50   0.00   58.9    91    2.7    16     3.7   1019.5    0.00 
 355   18:00   0.00   58.5    91    2.5     3     4.3   1019.6    0.00 
 355   18:10   0.00   58.6    92    2.3     9     3.7   1019.6    0.00 
 355   18:20   0.00   59.1    92    2.9   342     5.8   1019.7    0.00 
 355   18:30   0.00   59.1    91    4.3   317     6.1   1019.8    0.00 
 355   18:40   0.00   59.8    90    4.5   321     6.1   1019.9    0.00 
 355   18:50   0.00   60.5    89    5.0   328     7.5   1020.0    0.00 
 355   19:00   0.00   60.7    88    4.8   334     6.7   1019.9    0.00 
 355   19:10   0.00   60.2    87    4.5   330     7.3   1019.9    0.00 
 355   19:20   0.00   60.5    85    3.3   343     7.6   1020.0    0.00 
 355   19:30   0.00   62.0    81    3.6   358     7.1   1020.0    0.00 
 355   19:40   0.00   61.4    82    4.6   315     7.2   1020.0    0.00 
 355   19:50   0.00   61.2    84    5.1   333     7.8   1020.1    0.00 
 355   20:00   0.00   62.8    78    7.4   345    12.6   1020.0    0.00 
 355   20:10   0.00   63.8    74    8.0   337    12.4   1020.1    0.00 
 355   20:20   0.00   63.5    75    8.7   316    12.4   1020.2    0.00 
 355   20:30   0.00   61.6    84    8.1   318    10.8   1020.2    0.00 
 355   20:40   0.00   61.6    84    7.5   325    11.0   1020.2    0.00 
 355   20:50   0.00   61.6    86    7.8   334    10.4   1020.2    0.00 
 355   21:00   0.00   61.6    87    8.9   336    11.6   1020.2    0.00 
 355   21:10   0.00   61.4    87    8.9   341    13.3   1020.2    0.00 
 355   21:20   0.00   62.0    84    7.9   337    11.8   1020.2    0.00 
 355   21:30   0.00   62.5    79    7.8   342    12.9   1020.2    0.00 
 355   21:40   0.00   62.3    78    6.7   344    10.5   1020.3    0.00 
 355   21:50   0.00   62.3    77    5.9   344     8.6   1020.4    0.00 
 355   22:00   0.00   62.4    76    5.9   354     9.9   1020.4    0.00 
 355   22:10   0.00   61.2    79    5.0    18     7.0   1020.4    0.00 
 355   22:20   0.00   60.4    80    4.5    55     7.5   1020.4    0.00 
 355   22:30   0.00   60.2    85    4.5   100     6.4   1020.4    0.00 
 355   22:40   0.00   58.7    86    3.1    95     4.7   1020.3    0.00 
 355   22:50   0.00   58.9    86    4.1    86     5.3   1020.2    0.00 
 355   23:00   0.00   58.0    87    3.8    67     5.4   1020.2    0.00 
 355   23:10   0.00   58.3    88    2.9    84     4.5   1020.1    0.00 
 355   23:20   0.00   59.6    85    2.1    61     5.8   1020.0    0.00 
 355   23:30   0.00   58.4    86    2.2    52     5.5   1019.9    0.00 
 355   23:40   0.00   57.9    87    1.0    75     3.1   1019.9    0.00 
 355   23:50   0.00   58.0    88    2.4    47     4.6   1019.9    0.00 
 356    0:00   0.00   58.0    88    2.9    55     5.5   1019.9    0.00 
 356    0:10   0.00   57.5    88    3.8    27     4.8   1019.7    0.00 
 356    0:20   0.00   57.1    89    3.3    44     4.7   1019.6    0.00 
 356    0:30   0.00   56.7    90    3.5    21     5.4   1019.5    0.00 
 356    0:40   0.00   56.6    90    2.9    29     5.1   1019.3    0.00 
 356    0:50   0.00   56.8    90    1.5    71     3.4   1019.3    0.00 
 356    1:00   0.00   56.7    90    2.0    88     3.5   1019.2    0.00 
 356    1:10   0.00   56.9    90    1.9    64     3.2   1019.3    0.00 
 356    1:20   0.00   56.6    90    2.6    35     3.6   1019.2    0.00 
 356    1:30   0.00   57.0    90    2.7   354     4.5   1019.2    0.00 
 356    1:40   0.00   56.7    90    3.0     2     4.6   1019.2    0.00 
 356    1:50   0.00   56.5    90    1.9    90     4.2   1019.2    0.00 
 356    2:00   0.00   56.4    90    2.6    70     4.9   1019.3    0.00 
 356    2:10   0.00   56.4    91    3.1    55     5.5   1019.3    0.00 
 356    2:20   0.00   56.5    91    3.1    52     5.3   1019.3    0.00 
 356    2:30   0.00   55.9    91    3.1    43     4.7   1019.3    0.00 
 356    2:40   0.00   56.4    92    4.1    27     6.1   1019.3    0.00 
 356    2:50   0.00   56.4    91    4.3    36     6.0   1019.3    0.00 
 356    3:00   0.00   56.4    91    3.0    31     4.7   1019.3    0.00 
 356    3:10   0.00   56.9    90    2.6    32     5.7   1019.2    0.00 
 356    3:20   0.00   57.1    89    1.4   108     3.0   1019.1    0.00 
 356    3:30   0.00   57.1    88    1.6    79     3.9   1019.0    0.00 
 356    3:40   0.00   57.0    89    1.3   119     4.6   1018.9    0.00 
 356    3:50   0.00   57.1    88    2.3   134     6.1   1018.8    0.00 
 356    4:00   0.00   57.0    88    1.4   103     3.5   1018.8    0.00 
 356    4:10   0.00   56.9    88    2.9    62     6.1   1018.8    0.00 
 356    4:20   0.00   56.8    89    1.5    84     3.1   1018.8    0.00 
 356    4:30   0.00   57.5    89    1.8    97     4.5   1018.8    0.00 
 356    4:40   0.00   57.0    88    1.7    74     3.1   1018.7    0.00 
 356    4:50   0.00   56.6    89    1.6    33     4.2   1018.7    0.00 
 356    5:00   0.00   56.2    90    1.3    13     3.4   1018.7    0.00 
 356    5:10   0.00   56.4    90    2.5    14     4.5   1018.7    0.00 
 356    5:20   0.00   56.8    89    1.2   318     3.1   1018.7    0.00 
 356    5:30   0.00   57.1    89    1.5    83     3.5   1018.7    0.00 
 356    5:40   0.00   56.9    89    1.7   102     3.0   1018.8    0.00 
 356    5:50   0.00   56.8    89    2.8    97     4.5   1018.8    0.00 
 356    6:00   0.00   56.7    89    2.0    87     4.2   1018.8    0.00 
 356    6:10   0.00   56.2    90    3.3    72     4.7   1018.8    0.00 
 356    6:20   0.00   57.0    90    2.4   100     5.1   1018.8    0.00 
 356    6:30   0.00   56.8    90    1.3    61     2.6   1018.8    0.00 
 356    6:40   0.00   56.4    90    2.1    57     3.9   1018.8    0.00 
 356    6:50   0.00   55.5    91    2.8    77     4.7   1018.8    0.00 
 356    7:00   0.00   55.7    92    2.9    88     4.5   1018.8    0.00 
 356    7:10   0.00   55.7    92    2.6    84     3.8   1018.8    0.00 
 356    7:20   0.01   55.6    92    2.9    55     4.7   1018.8    0.00 
 356    7:30   0.01   56.4    92    2.3    72     3.9   1018.8    0.00 
 356    7:40   0.01   56.1    93    2.3    59     3.8   1018.8    0.00 
 356    7:50   0.01   56.4    93    3.2    38     5.5   1018.7    0.00 
 356    8:00   0.06   57.3    93    5.4    31     8.3   1018.7    0.00 
 356    8:10   0.10   58.5    89    5.5    28     8.5   1018.8    0.00 
 356    8:20   0.13   59.7    84    4.1    28     8.9   1019.1    0.00 
 356    8:30   0.16   61.2    79    3.3    16     6.0   1019.4    0.00 
 356    8:40   0.18   60.7    81    0.8    61     2.2   1019.5    0.00 
 356    8:50   0.21   62.0    79    2.2    74     7.0   1019.5    0.00 
 356    9:00   0.24   63.7    76    3.2   223     5.8   1019.5    0.00 
 356    9:10   0.26   63.2    79    3.0   231     5.6   1019.5    0.00 
 356    9:20   0.28   63.3    80    3.2   268     6.3   1019.5    0.00 
 356    9:30   0.31   63.1    84    5.0   264     7.0   1019.3    0.00 
 356    9:40   0.33   62.8    88    4.1   249     7.0   1019.3    0.00 
 356    9:50   0.36   62.7    89    3.4   245     5.0   1019.3    0.00 
 356   10:00   0.38   62.9    88    2.8   252     4.2   1019.3    0.00 
 356   10:10   0.40   62.7    87    3.1   245     3.8   1019.1    0.00 
 356   10:20   0.42   63.1    86    3.8   248     5.1   1019.2    0.00 
 356   10:30   0.43   63.1    86    5.0   255     6.2   1019.1    0.00 
 356   10:40   0.45   63.2    82    4.0   269     6.2   1019.0    0.00 
 356   10:50   0.46   63.6    78    5.1   278     6.4   1018.9    0.00 
 356   11:00   0.48   64.0    81    4.9   276     6.7   1018.7    0.00 
 356   11:10   0.49   63.8    82    3.8   279     5.6   1018.6    0.00 
 356   11:20   0.49   63.4    83    4.8   260     6.4   1018.5    0.00 
 356   11:30   0.50   63.4    82    4.4   271     5.9   1018.4    0.00 
 356   11:40   0.51   64.0    79    5.8   277     7.9   1018.1    0.00 
 356   11:50   0.52   64.2    81    6.5   282     8.7   1017.9    0.00 
 356   12:00   0.52   64.0    84    6.3   278     8.9   1017.7    0.00 
 356   12:10   0.52   64.1    85    5.5   257     7.4   1017.5    0.00 
 356   12:20   0.52   64.0    86    6.4   257     8.8   1017.4    0.00 
 356   12:30   0.52   63.8    86    6.0   259     8.6   1017.2    0.00 
 356   12:40   0.52   63.6    87    5.5   245     8.0   1017.2    0.00 
 356   12:50   0.51   63.4    87    6.3   250     9.0   1017.2    0.00 
 356   13:00   0.50   63.6    86    6.1   260     8.6   1017.2    0.00 
 356   13:10   0.50   64.0    84    5.7   272     8.9   1017.4    0.00 
 356   13:20   0.48   63.9    86    5.8   283     7.7   1017.5    0.00 

Return to Norris Rancho Marino Reserve graphs page.


Western Regional Climate Center,wrcc@dri.edu